createdAt,value
2022-09-05T00:02:04.957Z,5.32
2022-09-05T00:04:38.522Z,3.97
2022-09-05T00:07:41.247Z,6.45
2022-09-05T00:10:13.257Z,4.82
2022-09-05T00:12:45.076Z,4.90
2022-09-05T00:15:23.607Z,5.18
2022-09-05T00:21:33.538Z,5.32
2022-09-05T00:24:42.428Z,3.60
2022-09-05T00:27:18.916Z,3.67
2022-09-05T00:31:08.562Z,4.38
2022-09-05T00:33:20.291Z,3.53
2022-09-05T00:36:01.062Z,3.78
2022-09-05T00:38:36.941Z,5.18
2022-09-05T00:41:10.968Z,3.63
2022-09-05T00:43:43.269Z,2.00
2022-09-05T00:46:16.004Z,2.53
2022-09-05T00:48:52.264Z,2.97
2022-09-05T00:51:35.704Z,2.47
2022-09-05T00:54:16.422Z,2.65
2022-09-05T00:56:59.993Z,2.28
2022-09-05T00:59:58.909Z,2.05
2022-09-05T01:02:52.095Z,2.83
2022-09-05T01:05:39.641Z,2.10
2022-09-05T01:08:28.467Z,2.80
2022-09-05T01:11:05.584Z,2.65
2022-09-05T01:13:42.643Z,2.30
2022-09-05T01:16:22.941Z,2.05
2022-09-05T01:19:00.684Z,2.70
2022-09-05T01:21:49.086Z,2.17
2022-09-05T01:24:32.881Z,2.88
2022-09-05T01:28:43.266Z,2.33
2022-09-05T01:30:36.987Z,1.85
2022-09-05T01:33:15.920Z,2.15
2022-09-05T01:36:09.076Z,2.38
2022-09-05T01:38:57.529Z,1.88
2022-09-05T01:41:42.767Z,1.85
2022-09-05T01:44:38.466Z,1.88
2022-09-05T01:47:28.463Z,2.28
2022-09-05T01:50:05.986Z,3.42
2022-09-05T01:53:03.683Z,1.70
2022-09-05T01:56:04.672Z,2.95
2022-09-05T01:58:52.932Z,2.03
2022-09-05T02:01:32.953Z,2.58
2022-09-05T02:04:24.847Z,1.38
2022-09-05T02:07:29.806Z,1.55
2022-09-05T02:10:19.953Z,1.33
2022-09-05T02:12:58.494Z,1.35
2022-09-05T02:15:42.885Z,1.27
2022-09-05T02:18:33.937Z,1.80
2022-09-05T02:21:03.966Z,1.98
2022-09-05T02:23:44.539Z,1.35
2022-09-05T02:26:19.388Z,2.30
2022-09-05T02:28:54.889Z,1.58
2022-09-05T02:31:31.056Z,1.35
2022-09-05T02:34:08.499Z,1.52
2022-09-05T02:36:43.958Z,1.35
2022-09-05T02:45:08.602Z,1.00
2022-09-05T02:45:16.998Z,1.17
2022-09-05T02:45:30.417Z,1.63
2022-09-05T02:48:15.788Z,1.35
2022-09-05T02:57:24.974Z,1.13
2022-09-05T02:57:35.917Z,1.77
2022-09-05T02:57:39.468Z,1.20
2022-09-05T03:00:13.503Z,1.25
2022-09-05T03:03:05.458Z,1.33
2022-09-05T03:05:39.513Z,1.25
2022-09-05T03:08:37.393Z,1.73
2022-09-05T03:11:34.078Z,1.88
2022-09-05T03:14:36.002Z,1.25
2022-09-05T03:20:33.893Z,1.10
2022-09-05T03:23:39.963Z,1.45
2022-09-05T03:26:43.527Z,1.27
2022-09-05T03:29:38.493Z,1.35
2022-09-05T03:32:43.041Z,1.63
2022-09-05T03:35:49.179Z,1.60
2022-09-05T03:38:41.463Z,1.02
2022-09-05T03:41:40.059Z,0.90
2022-09-05T03:44:29.268Z,1.17
2022-09-05T03:47:16.738Z,1.40
2022-09-05T03:54:12.181Z,1.80
2022-09-05T03:57:19.054Z,1.48
2022-09-05T03:57:33.807Z,1.30
2022-09-05T04:00:10.440Z,1.58
2022-09-05T04:05:45.410Z,1.48
2022-09-05T04:08:28.343Z,1.55
2022-09-05T04:08:48.847Z,1.70
2022-09-05T04:11:22.169Z,1.77
2022-09-05T04:13:56.996Z,2.13
2022-09-05T04:16:29.424Z,1.15
2022-09-05T04:19:11.910Z,1.67
2022-09-05T04:21:47.948Z,1.38
2022-09-05T04:24:26.111Z,1.02
2022-09-05T04:27:16.171Z,1.80
2022-09-05T04:29:58.747Z,1.77
2022-09-05T04:32:41.430Z,2.38
2022-09-05T04:35:27.345Z,1.23
2022-09-05T04:37:59.766Z,1.38
2022-09-05T04:40:44.078Z,1.58
2022-09-05T04:43:22.120Z,1.65
2022-09-05T04:45:54.781Z,1.35
2022-09-05T04:48:29.625Z,1.92
2022-09-05T04:51:39.587Z,1.90
2022-09-05T04:54:31.236Z,2.03
2022-09-05T04:57:14.220Z,2.40
2022-09-05T05:01:52.384Z,1.67
2022-09-05T05:06:15.942Z,1.38
2022-09-05T05:06:16.893Z,1.30
2022-09-05T05:08:39.247Z,1.88
2022-09-05T05:16:26.556Z,1.90
2022-09-05T05:18:01.974Z,1.63
2022-09-05T05:18:14.531Z,1.65
2022-09-05T05:20:39.494Z,1.60
2022-09-05T05:22:56.124Z,1.90
2022-09-05T05:25:24.744Z,1.50
2022-09-05T05:28:18.663Z,2.88
2022-09-05T05:31:01.279Z,1.40
2022-09-05T05:33:34.898Z,1.73
2022-09-05T05:36:05.947Z,1.63
2022-09-05T05:38:45.193Z,3.17
2022-09-05T05:41:20.208Z,3.13
2022-09-05T05:43:52.010Z,1.42
2022-09-05T05:46:31.846Z,2.78
2022-09-05T05:49:19.736Z,1.90
2022-09-05T05:52:02.333Z,2.05
2022-09-05T05:54:38.466Z,2.55
2022-09-05T05:57:54.752Z,1.65
2022-09-05T06:00:40.500Z,2.83
2022-09-05T06:03:55.361Z,2.53
2022-09-05T06:06:55.776Z,1.70
2022-09-05T06:14:50.772Z,2.17
2022-09-05T06:15:04.902Z,1.92
2022-09-05T06:16:45.796Z,3.10
2022-09-05T06:20:47.473Z,2.72
2022-09-05T06:23:17.437Z,2.70
2022-09-05T06:26:33.322Z,2.67
2022-09-05T06:29:08.587Z,2.70
2022-09-05T06:31:50.999Z,2.75
2022-09-05T06:34:48.722Z,1.95
2022-09-05T06:37:27.735Z,2.42
2022-09-05T06:40:07.143Z,2.72
2022-09-05T06:42:43.675Z,1.80
2022-09-05T06:45:39.345Z,2.28
2022-09-05T06:48:44.688Z,2.25
2022-09-05T06:51:46.268Z,3.47
2022-09-05T06:54:47.198Z,2.15
2022-09-05T06:57:49.076Z,2.22
2022-09-05T07:00:23.844Z,2.33
2022-09-05T07:03:13.489Z,2.22
2022-09-05T07:05:55.733Z,1.52
2022-09-05T07:08:39.403Z,2.25
2022-09-05T07:11:16.972Z,4.35
2022-09-05T07:13:58.061Z,1.77
2022-09-05T07:16:38.948Z,2.87
2022-09-05T07:19:24.517Z,3.20
2022-09-05T07:22:29.538Z,3.38
2022-09-05T07:25:08.864Z,3.85
2022-09-05T07:27:44.430Z,2.72
2022-09-05T07:30:30.071Z,2.60
2022-09-05T07:33:01.376Z,3.47
2022-09-05T07:35:34.677Z,2.63
2022-09-05T07:38:15.941Z,2.17
2022-09-05T07:40:52.451Z,1.95
2022-09-05T07:43:24.158Z,2.20
2022-09-05T07:46:06.565Z,2.75
2022-09-05T07:48:38.563Z,2.13
2022-09-05T07:55:03.494Z,2.00
2022-09-05T07:56:58.569Z,1.77
2022-09-05T07:57:25.391Z,1.42
2022-09-05T07:59:48.900Z,2.08
2022-09-05T08:02:17.357Z,1.77
2022-09-05T08:04:45.998Z,2.33
2022-09-05T08:07:47.962Z,2.33
2022-09-05T08:10:15.411Z,2.08
2022-09-05T08:13:22.284Z,1.90
2022-09-05T08:16:02.702Z,2.00
2022-09-05T08:18:37.029Z,2.45
2022-09-05T08:21:11.208Z,2.88
2022-09-05T08:23:53.143Z,3.83
2022-09-05T08:26:34.949Z,2.45
2022-09-05T08:29:11.351Z,1.52
2022-09-05T08:31:44.539Z,2.65
2022-09-05T08:34:26.108Z,3.30
2022-09-05T08:37:02.409Z,2.70
2022-09-05T08:39:35.162Z,2.50
2022-09-05T08:42:28.277Z,2.20
2022-09-05T08:46:44.006Z,2.40
2022-09-05T08:48:16.795Z,2.83
2022-09-05T08:51:09.063Z,3.47
2022-09-05T08:53:59.062Z,3.28
2022-09-05T08:56:35.775Z,2.70
2022-09-05T08:59:28.134Z,2.53
2022-09-05T09:02:47.478Z,3.42
2022-09-05T09:05:14.879Z,3.05
2022-09-05T09:07:52.090Z,2.42
2022-09-05T09:10:44.762Z,3.05
2022-09-05T09:13:27.982Z,3.42
2022-09-05T09:16:06.639Z,2.58
2022-09-05T09:18:58.517Z,3.30
2022-09-05T09:21:35.563Z,3.35
2022-09-05T09:24:16.949Z,3.28
2022-09-05T09:26:54.958Z,2.88
2022-09-05T09:29:25.153Z,4.03
2022-09-05T09:32:09.686Z,2.85
2022-09-05T09:34:49.237Z,3.03
2022-09-05T09:37:54.398Z,3.35
2022-09-05T09:41:02.346Z,4.40
2022-09-05T09:43:52.845Z,4.00
2022-09-05T09:46:38.982Z,3.08
2022-09-05T09:49:27.732Z,4.40
2022-09-05T09:52:19.413Z,3.53
2022-09-05T09:55:17.356Z,3.65
2022-09-05T09:58:30.832Z,4.95
2022-09-05T10:01:35.571Z,3.75
2022-09-05T10:10:40.291Z,4.20
2022-09-05T10:11:09.667Z,4.53
2022-09-05T10:11:51.502Z,3.45
2022-09-05T10:14:49.509Z,4.22
2022-09-05T10:17:33.980Z,3.83
2022-09-05T10:20:29.426Z,4.50
2022-09-05T10:29:36.760Z,3.50
2022-09-05T10:34:31.172Z,3.78
2022-09-05T10:35:12.788Z,3.70
2022-09-05T10:37:49.573Z,3.63
2022-09-05T10:40:23.337Z,3.13
2022-09-05T10:43:01.198Z,3.47
2022-09-05T10:45:45.599Z,2.72
2022-09-05T10:48:23.087Z,3.80
2022-09-05T10:50:59.908Z,3.17
2022-09-05T10:53:39.277Z,4.47
2022-09-05T10:56:14.418Z,3.80
2022-09-05T11:01:45.376Z,4.20
2022-09-05T11:02:29.473Z,4.40
2022-09-05T11:05:09.280Z,3.97
2022-09-05T11:07:43.036Z,4.18
2022-09-05T11:10:17.377Z,4.03
2022-09-05T11:13:01.460Z,3.25
2022-09-05T11:15:36.464Z,3.40
2022-09-05T11:18:11.572Z,3.80
2022-09-05T11:20:50.617Z,4.45
2022-09-05T11:23:23.223Z,3.40
2022-09-05T11:26:02.129Z,3.97
2022-09-05T11:28:50.989Z,3.28
2022-09-05T11:31:47.757Z,3.08
2022-09-05T11:39:46.973Z,4.20
2022-09-05T11:40:02.603Z,3.33
2022-09-05T11:41:38.930Z,3.25
2022-09-05T11:44:30.239Z,3.60
2022-09-05T11:47:27.186Z,3.28
2022-09-05T11:50:37.139Z,3.95
2022-09-05T11:53:54.968Z,4.60
2022-09-05T11:57:31.909Z,2.97
2022-09-05T12:00:32.794Z,3.58
2022-09-05T12:03:57.063Z,4.03
2022-09-05T12:07:16.019Z,4.13
2022-09-05T12:10:46.548Z,5.43
2022-09-05T12:13:21.633Z,4.90
2022-09-05T12:15:53.431Z,4.13
2022-09-05T12:18:44.198Z,4.25
2022-09-05T12:21:31.865Z,3.95
2022-09-05T12:24:57.341Z,4.53
2022-09-05T12:27:38.757Z,4.88
2022-09-05T12:30:00.458Z,4.35
2022-09-05T12:35:44.673Z,5.25
2022-09-05T12:36:11.513Z,4.10
2022-09-05T12:41:44.236Z,3.42
2022-09-05T12:44:45.653Z,4.47
2022-09-05T12:47:20.190Z,4.35
2022-09-05T12:50:02.566Z,4.15
2022-09-05T12:52:43.387Z,4.45
2022-09-05T12:55:26.134Z,4.18
2022-09-05T13:02:55.048Z,4.90
2022-09-05T13:03:12.047Z,4.00
2022-09-05T13:04:16.912Z,3.85
2022-09-05T13:06:43.693Z,3.67
2022-09-05T13:09:22.683Z,4.60
2022-09-05T13:14:52.376Z,4.30
2022-09-05T13:15:12.343Z,3.85
2022-09-05T13:17:52.392Z,3.28
2022-09-05T13:20:25.943Z,5.00
2022-09-05T13:22:54.843Z,4.35
2022-09-05T13:25:27.234Z,4.30
2022-09-05T13:28:02.130Z,4.03
2022-09-05T13:35:06.957Z,4.25
2022-09-05T13:38:30.437Z,4.25
2022-09-05T13:38:30.623Z,3.70
2022-09-05T13:39:13.707Z,5.57
2022-09-05T13:41:46.436Z,3.63
2022-09-05T13:44:26.614Z,4.00
2022-09-05T13:47:00.965Z,3.28
2022-09-05T13:49:35.276Z,3.83
2022-09-05T13:52:38.070Z,3.65
2022-09-05T13:55:21.458Z,3.97
2022-09-05T13:57:54.550Z,4.68
2022-09-05T14:01:08.177Z,3.25
2022-09-05T14:03:55.705Z,4.25
2022-09-05T14:06:49.062Z,3.60
2022-09-05T14:09:43.736Z,3.72
2022-09-05T14:12:29.484Z,4.53
2022-09-05T14:15:10.413Z,4.15
2022-09-05T14:17:58.346Z,3.30
2022-09-05T14:20:50.211Z,3.60
2022-09-05T14:23:25.098Z,4.20
2022-09-05T14:25:58.186Z,4.88
2022-09-05T14:28:31.753Z,7.22
2022-09-05T14:37:38.624Z,4.50
2022-09-05T14:37:42.764Z,3.58
2022-09-05T14:37:43.039Z,3.70
2022-09-05T14:40:45.668Z,3.72
2022-09-05T14:43:56.861Z,5.07
2022-09-05T14:46:45.603Z,5.80
2022-09-05T14:49:49.390Z,5.90
2022-09-05T14:52:23.581Z,4.55
2022-09-05T15:02:57.150Z,5.18
2022-09-05T15:06:35.618Z,5.70
2022-09-05T15:12:17.519Z,4.68
2022-09-05T15:12:23.793Z,4.50
2022-09-05T15:15:00.767Z,6.15
2022-09-05T15:17:31.900Z,5.15
2022-09-05T15:20:07.498Z,4.63
2022-09-05T15:22:38.429Z,5.90
2022-09-05T15:25:17.177Z,4.78
2022-09-05T15:27:47.440Z,4.38
2022-09-05T15:30:27.531Z,5.18
2022-09-05T15:33:18.118Z,5.18
2022-09-05T15:35:54.107Z,4.63
2022-09-05T15:38:28.752Z,5.80
2022-09-05T15:41:19.791Z,6.55
2022-09-05T15:43:59.894Z,5.25
2022-09-05T15:46:41.309Z,6.13
2022-09-05T15:49:22.762Z,4.07
2022-09-05T15:51:52.826Z,5.25
2022-09-05T15:54:27.077Z,5.10
2022-09-05T15:57:15.272Z,4.32
2022-09-05T15:59:49.543Z,5.40
2022-09-05T16:02:22.902Z,5.78
2022-09-05T16:10:33.693Z,4.55
2022-09-05T16:10:41.440Z,5.85
2022-09-05T16:11:04.472Z,5.57
2022-09-05T16:13:52.877Z,4.10
2022-09-05T16:21:05.310Z,5.55
2022-09-05T16:23:29.141Z,4.93
2022-09-05T16:23:33.605Z,5.72
2022-09-05T16:25:11.032Z,4.60
2022-09-05T16:27:51.132Z,4.78
2022-09-05T16:30:28.288Z,5.88
2022-09-05T16:33:03.027Z,5.45
2022-09-05T16:35:35.396Z,4.75
2022-09-05T16:38:24.203Z,4.45
2022-09-05T16:41:09.675Z,5.32
2022-09-05T16:43:43.961Z,5.47
2022-09-05T16:46:21.076Z,5.55
2022-09-05T16:48:56.191Z,4.03
2022-09-05T16:51:35.925Z,3.92
2022-09-05T16:54:13.704Z,3.90
2022-09-05T16:56:45.363Z,4.65
2022-09-05T16:59:18.194Z,4.60
2022-09-05T17:02:09.973Z,5.03
2022-09-05T17:05:03.348Z,4.22
2022-09-05T17:07:43.911Z,4.45
2022-09-05T17:10:18.602Z,5.25
2022-09-05T17:12:47.741Z,4.45
2022-09-05T17:15:19.330Z,4.25
2022-09-05T17:18:22.412Z,3.90
2022-09-05T17:20:50.815Z,2.88
2022-09-05T17:28:01.177Z,4.75
2022-09-05T17:29:32.367Z,5.13
2022-09-05T17:29:33.771Z,4.35
2022-09-05T17:32:06.303Z,3.42
2022-09-05T17:34:52.057Z,3.67
2022-09-05T17:37:40.045Z,3.83
2022-09-05T17:40:37.908Z,7.35
2022-09-05T17:43:13.327Z,4.90
2022-09-05T17:45:57.099Z,6.88
2022-09-05T17:49:19.436Z,5.90
2022-09-05T17:52:27.566Z,4.95
2022-09-05T17:54:57.649Z,5.05
2022-09-05T17:57:35.291Z,6.05
2022-09-05T18:00:49.583Z,4.20
2022-09-05T18:04:09.772Z,6.20
2022-09-05T18:06:59.948Z,5.05
2022-09-05T18:09:59.000Z,4.53
2022-09-05T18:13:14.016Z,4.97
2022-09-05T18:16:04.969Z,4.30
2022-09-05T18:19:32.971Z,4.38
2022-09-05T18:21:26.100Z,3.97
2022-09-05T18:24:05.411Z,4.72
2022-09-05T18:26:42.459Z,4.93
2022-09-05T18:29:31.002Z,3.72
2022-09-05T18:32:13.366Z,5.28
2022-09-05T18:34:44.021Z,4.72
2022-09-05T18:37:59.619Z,5.13
2022-09-05T18:41:11.099Z,6.22
2022-09-05T18:44:19.842Z,6.72
2022-09-05T18:46:51.134Z,6.15
2022-09-05T18:52:22.093Z,5.40
2022-09-05T18:56:09.599Z,6.55
2022-09-05T18:57:51.721Z,7.13
2022-09-05T19:00:46.762Z,5.43
2022-09-05T19:03:25.032Z,6.20
2022-09-05T19:06:34.930Z,5.93
2022-09-05T19:08:49.106Z,5.50
2022-09-05T19:11:28.923Z,4.68
2022-09-05T19:14:25.536Z,4.82
2022-09-05T19:17:02.257Z,6.30
2022-09-05T19:19:31.598Z,4.43
2022-09-05T19:22:52.595Z,5.78
2022-09-05T19:24:50.615Z,4.00
2022-09-05T19:28:23.366Z,3.53
2022-09-05T19:36:59.987Z,4.03
2022-09-05T19:37:04.209Z,3.55
2022-09-05T19:37:15.601Z,4.13
2022-09-05T19:42:40.006Z,4.22
2022-09-05T19:47:27.754Z,5.28
2022-09-05T19:47:37.946Z,5.07
2022-09-05T19:47:56.060Z,5.78
2022-09-05T19:50:21.487Z,4.18
2022-09-05T19:52:53.376Z,5.40
2022-09-05T19:55:23.519Z,2.30
2022-09-05T19:58:18.601Z,2.55
2022-09-05T20:00:45.862Z,2.63
2022-09-05T20:03:22.997Z,2.05
2022-09-05T20:05:51.840Z,2.17
2022-09-05T20:08:31.865Z,1.83
2022-09-05T20:11:03.988Z,3.38
2022-09-05T20:13:32.328Z,2.75
2022-09-05T20:16:02.073Z,3.20
2022-09-05T20:18:40.368Z,3.25
2022-09-05T20:21:12.429Z,3.72
2022-09-05T20:23:45.113Z,4.50
2022-09-05T20:26:13.633Z,4.00
2022-09-05T20:28:43.354Z,3.75
2022-09-05T20:31:17.089Z,4.68
2022-09-05T20:33:51.643Z,3.85
2022-09-05T20:43:08.010Z,3.25
2022-09-05T20:43:20.495Z,4.03
2022-09-05T20:43:23.029Z,3.75
2022-09-05T20:44:55.898Z,6.70
2022-09-05T20:54:08.877Z,4.45
2022-09-05T20:54:14.295Z,4.45
2022-09-05T20:54:24.363Z,4.18
2022-09-05T20:56:22.789Z,4.18
2022-09-05T20:58:51.865Z,4.38
2022-09-05T21:01:23.416Z,3.92
2022-09-05T21:03:57.431Z,3.17
2022-09-05T21:06:33.444Z,3.97
2022-09-05T21:09:24.548Z,3.80
2022-09-05T21:11:55.815Z,3.28
2022-09-05T21:14:26.093Z,4.65
2022-09-05T21:16:59.501Z,4.25
2022-09-05T21:19:31.254Z,5.47
2022-09-05T21:22:06.747Z,4.30
2022-09-05T21:24:35.407Z,4.72
2022-09-05T21:27:18.115Z,3.72
2022-09-05T21:29:58.755Z,4.90
2022-09-05T21:32:38.292Z,4.03
2022-09-05T21:35:34.055Z,4.30
2022-09-05T21:38:02.222Z,5.70
2022-09-05T21:40:30.514Z,4.35
2022-09-05T21:47:35.228Z,4.65
2022-09-05T21:47:50.095Z,5.20
2022-09-05T21:48:38.104Z,4.13
2022-09-05T21:51:09.440Z,4.38
2022-09-05T21:59:13.312Z,4.35
2022-09-05T21:59:28.693Z,3.53
2022-09-05T21:59:46.526Z,3.15
2022-09-05T22:02:13.774Z,4.70
2022-09-05T22:04:42.084Z,4.35
2022-09-05T22:07:14.510Z,5.32
2022-09-05T22:09:44.163Z,5.38
2022-09-05T22:12:30.214Z,5.13
2022-09-05T22:15:10.172Z,4.03
2022-09-05T22:17:48.115Z,5.18
2022-09-05T22:20:20.889Z,4.95
2022-09-05T22:22:56.405Z,5.65
2022-09-05T22:25:30.115Z,5.68
2022-09-05T22:28:06.526Z,4.82
2022-09-05T22:30:35.481Z,5.05
2022-09-05T22:33:05.632Z,4.97
2022-09-05T22:35:34.557Z,5.05
2022-09-05T22:38:09.656Z,7.00
2022-09-05T22:40:41.439Z,5.65
2022-09-05T22:43:11.626Z,6.10
2022-09-05T22:45:41.621Z,4.97
2022-09-05T22:48:11.492Z,5.72
2022-09-05T22:50:40.721Z,6.20
2022-09-05T22:53:10.621Z,4.95
2022-09-05T22:55:42.195Z,4.95
2022-09-05T22:58:13.310Z,6.07
2022-09-05T23:03:12.515Z,4.95
2022-09-05T23:05:40.784Z,4.82
2022-09-05T23:08:09.369Z,4.82
2022-09-05T23:10:38.777Z,6.80
2022-09-05T23:13:11.135Z,7.05
2022-09-05T23:15:40.136Z,5.55
2022-09-05T23:18:08.383Z,5.45
2022-09-05T23:20:36.566Z,5.10
2022-09-05T23:23:06.466Z,4.38
2022-09-05T23:25:35.306Z,6.05
2022-09-05T23:28:06.500Z,5.13
2022-09-05T23:30:36.185Z,5.45
2022-09-05T23:33:07.307Z,7.20
2022-09-05T23:35:35.787Z,5.45
2022-09-05T23:38:04.112Z,6.05
2022-09-05T23:40:32.318Z,5.80
2022-09-05T23:43:01.327Z,5.30
2022-09-05T23:45:30.052Z,4.65
2022-09-05T23:48:00.232Z,5.32
2022-09-05T23:50:29.635Z,5.00
2022-09-05T23:52:58.023Z,5.47
2022-09-05T23:55:27.286Z,4.85
2022-09-05T23:57:58.426Z,5.10
